sensor_id;sensor_type;location;lat;lon;timestamp;P1;durP1;ratioP1;P2;durP2;ratioP2
22282;SDS011;11310;51.528;21.204;2022-08-21T00:02:03;7.63;;;2.88;;
22282;SDS011;11310;51.528;21.204;2022-08-21T00:04:34;5.00;;;2.50;;
22282;SDS011;11310;51.528;21.204;2022-08-21T00:07:14;9.82;;;2.97;;
22282;SDS011;11310;51.528;21.204;2022-08-21T00:09:43;4.97;;;2.33;;
22282;SDS011;11310;51.528;21.204;2022-08-21T00:12:12;8.60;;;3.25;;
22282;SDS011;11310;51.528;21.204;2022-08-21T00:14:41;6.93;;;2.55;;
22282;SDS011;11310;51.528;21.204;2022-08-21T00:17:12;8.98;;;3.15;;
22282;SDS011;11310;51.528;21.204;2022-08-21T00:19:44;7.45;;;3.20;;
22282;SDS011;11310;51.528;21.204;2022-08-21T00:22:13;10.00;;;3.40;;
22282;SDS011;11310;51.528;21.204;2022-08-21T00:24:41;7.57;;;3.25;;
22282;SDS011;11310;51.528;21.204;2022-08-21T00:27:10;10.07;;;3.55;;
22282;SDS011;11310;51.528;21.204;2022-08-21T00:29:39;6.80;;;3.67;;
22282;SDS011;11310;51.528;21.204;2022-08-21T00:32:07;8.30;;;3.60;;
22282;SDS011;11310;51.528;21.204;2022-08-21T00:34:36;11.25;;;3.53;;
22282;SDS011;11310;51.528;21.204;2022-08-21T00:37:06;7.03;;;3.25;;
22282;SDS011;11310;51.528;21.204;2022-08-21T00:39:35;5.85;;;2.83;;
22282;SDS011;11310;51.528;21.204;2022-08-21T00:42:05;8.50;;;3.60;;
22282;SDS011;11310;51.528;21.204;2022-08-21T00:44:33;9.10;;;3.67;;
22282;SDS011;11310;51.528;21.204;2022-08-21T00:47:04;8.00;;;3.50;;
22282;SDS011;11310;51.528;21.204;2022-08-21T00:49:33;8.48;;;3.70;;
22282;SDS011;11310;51.528;21.204;2022-08-21T00:52:02;8.40;;;3.40;;
22282;SDS011;11310;51.528;21.204;2022-08-21T00:54:33;8.65;;;3.50;;
22282;SDS011;11310;51.528;21.204;2022-08-21T00:57:07;6.78;;;3.50;;
22282;SDS011;11310;51.528;21.204;2022-08-21T00:59:45;6.50;;;3.53;;
22282;SDS011;11310;51.528;21.204;2022-08-21T01:02:18;6.60;;;3.17;;
22282;SDS011;11310;51.528;21.204;2022-08-21T01:04:54;9.65;;;3.72;;
22282;SDS011;11310;51.528;21.204;2022-08-21T01:07:22;6.57;;;3.35;;
22282;SDS011;11310;51.528;21.204;2022-08-21T01:09:56;9.63;;;3.60;;
22282;SDS011;11310;51.528;21.204;2022-08-21T01:12:26;8.30;;;3.20;;
22282;SDS011;11310;51.528;21.204;2022-08-21T01:14:55;10.57;;;4.47;;
22282;SDS011;11310;51.528;21.204;2022-08-21T01:17:26;6.95;;;2.95;;
22282;SDS011;11310;51.528;21.204;2022-08-21T01:19:57;8.13;;;3.67;;
22282;SDS011;11310;51.528;21.204;2022-08-21T01:22:27;5.85;;;3.00;;
22282;SDS011;11310;51.528;21.204;2022-08-21T01:24:56;6.30;;;3.50;;
22282;SDS011;11310;51.528;21.204;2022-08-21T01:27:25;7.47;;;3.78;;
22282;SDS011;11310;51.528;21.204;2022-08-21T01:29:54;6.43;;;3.30;;
22282;SDS011;11310;51.528;21.204;2022-08-21T01:32:27;8.15;;;3.58;;
22282;SDS011;11310;51.528;21.204;2022-08-21T01:34:56;7.90;;;3.35;;
22282;SDS011;11310;51.528;21.204;2022-08-21T01:37:25;6.82;;;3.10;;
22282;SDS011;11310;51.528;21.204;2022-08-21T01:39:56;5.32;;;3.03;;
22282;SDS011;11310;51.528;21.204;2022-08-21T01:42:25;6.78;;;3.40;;
22282;SDS011;11310;51.528;21.204;2022-08-21T01:44:54;8.40;;;3.95;;
22282;SDS011;11310;51.528;21.204;2022-08-21T01:47:23;6.70;;;3.47;;
22282;SDS011;11310;51.528;21.204;2022-08-21T01:49:52;6.90;;;3.28;;
22282;SDS011;11310;51.528;21.204;2022-08-21T01:52:21;7.65;;;3.55;;
22282;SDS011;11310;51.528;21.204;2022-08-21T01:54:50;6.90;;;3.58;;
22282;SDS011;11310;51.528;21.204;2022-08-21T01:57:23;6.00;;;3.13;;
22282;SDS011;11310;51.528;21.204;2022-08-21T01:59:52;13.57;;;3.58;;
22282;SDS011;11310;51.528;21.204;2022-08-21T02:02:21;7.95;;;4.03;;
22282;SDS011;11310;51.528;21.204;2022-08-21T02:04:50;7.55;;;3.58;;
22282;SDS011;11310;51.528;21.204;2022-08-21T02:07:19;7.80;;;3.75;;
22282;SDS011;11310;51.528;21.204;2022-08-21T02:09:48;7.05;;;3.45;;
22282;SDS011;11310;51.528;21.204;2022-08-21T02:12:16;9.48;;;3.60;;
22282;SDS011;11310;51.528;21.204;2022-08-21T02:14:48;5.97;;;3.47;;
22282;SDS011;11310;51.528;21.204;2022-08-21T02:17:17;7.85;;;3.45;;
22282;SDS011;11310;51.528;21.204;2022-08-21T02:19:46;7.00;;;3.55;;
22282;SDS011;11310;51.528;21.204;2022-08-21T02:22:15;11.13;;;3.80;;
22282;SDS011;11310;51.528;21.204;2022-08-21T02:24:43;8.05;;;3.38;;
22282;SDS011;11310;51.528;21.204;2022-08-21T02:27:21;8.45;;;4.03;;
22282;SDS011;11310;51.528;21.204;2022-08-21T02:29:54;8.45;;;4.13;;
22282;SDS011;11310;51.528;21.204;2022-08-21T02:32:25;6.82;;;3.47;;
22282;SDS011;11310;51.528;21.204;2022-08-21T02:34:54;9.35;;;3.65;;
22282;SDS011;11310;51.528;21.204;2022-08-21T02:37:23;10.02;;;3.95;;
22282;SDS011;11310;51.528;21.204;2022-08-21T02:39:52;8.45;;;4.05;;
22282;SDS011;11310;51.528;21.204;2022-08-21T02:42:22;9.45;;;4.13;;
22282;SDS011;11310;51.528;21.204;2022-08-21T02:44:51;7.03;;;3.42;;
22282;SDS011;11310;51.528;21.204;2022-08-21T02:47:24;9.82;;;3.83;;
22282;SDS011;11310;51.528;21.204;2022-08-21T02:49:53;8.57;;;3.95;;
22282;SDS011;11310;51.528;21.204;2022-08-21T02:52:21;7.57;;;4.10;;
22282;SDS011;11310;51.528;21.204;2022-08-21T02:54:51;6.40;;;3.60;;
22282;SDS011;11310;51.528;21.204;2022-08-21T02:57:23;8.10;;;4.60;;
22282;SDS011;11310;51.528;21.204;2022-08-21T02:59:53;7.78;;;3.58;;
22282;SDS011;11310;51.528;21.204;2022-08-21T03:02:26;7.15;;;3.53;;
22282;SDS011;11310;51.528;21.204;2022-08-21T03:04:55;10.07;;;4.78;;
22282;SDS011;11310;51.528;21.204;2022-08-21T03:07:24;7.40;;;3.47;;
22282;SDS011;11310;51.528;21.204;2022-08-21T03:09:53;8.27;;;3.72;;
22282;SDS011;11310;51.528;21.204;2022-08-21T03:12:22;8.32;;;3.60;;
22282;SDS011;11310;51.528;21.204;2022-08-21T03:14:55;8.95;;;3.65;;
22282;SDS011;11310;51.528;21.204;2022-08-21T03:17:24;9.20;;;3.80;;
22282;SDS011;11310;51.528;21.204;2022-08-21T03:19:56;8.52;;;3.50;;
22282;SDS011;11310;51.528;21.204;2022-08-21T03:22:25;7.20;;;3.67;;
22282;SDS011;11310;51.528;21.204;2022-08-21T03:24:56;6.53;;;3.30;;
22282;SDS011;11310;51.528;21.204;2022-08-21T03:27:26;7.40;;;3.80;;
22282;SDS011;11310;51.528;21.204;2022-08-21T03:30:00;6.25;;;3.63;;
22282;SDS011;11310;51.528;21.204;2022-08-21T03:32:31;7.07;;;3.38;;
22282;SDS011;11310;51.528;21.204;2022-08-21T03:34:59;6.90;;;3.50;;
22282;SDS011;11310;51.528;21.204;2022-08-21T03:37:28;6.97;;;3.63;;
22282;SDS011;11310;51.528;21.204;2022-08-21T03:39:57;7.75;;;3.60;;
22282;SDS011;11310;51.528;21.204;2022-08-21T03:42:27;5.32;;;3.00;;
22282;SDS011;11310;51.528;21.204;2022-08-21T03:44:56;6.57;;;3.55;;
22282;SDS011;11310;51.528;21.204;2022-08-21T03:47:25;5.90;;;3.55;;
22282;SDS011;11310;51.528;21.204;2022-08-21T03:49:55;8.23;;;3.45;;
22282;SDS011;11310;51.528;21.204;2022-08-21T03:52:24;8.60;;;3.30;;
22282;SDS011;11310;51.528;21.204;2022-08-21T03:54:54;6.75;;;3.35;;
22282;SDS011;11310;51.528;21.204;2022-08-21T03:57:23;7.35;;;3.58;;
22282;SDS011;11310;51.528;21.204;2022-08-21T03:59:51;5.45;;;3.38;;
22282;SDS011;11310;51.528;21.204;2022-08-21T04:02:21;8.88;;;4.00;;
22282;SDS011;11310;51.528;21.204;2022-08-21T04:04:51;5.45;;;3.17;;
22282;SDS011;11310;51.528;21.204;2022-08-21T04:07:21;6.85;;;3.47;;
22282;SDS011;11310;51.528;21.204;2022-08-21T04:09:50;6.25;;;3.67;;
22282;SDS011;11310;51.528;21.204;2022-08-21T04:12:19;7.45;;;3.70;;
22282;SDS011;11310;51.528;21.204;2022-08-21T04:14:49;7.82;;;4.00;;
22282;SDS011;11310;51.528;21.204;2022-08-21T04:17:19;6.70;;;3.63;;
22282;SDS011;11310;51.528;21.204;2022-08-21T04:19:48;6.07;;;3.42;;
22282;SDS011;11310;51.528;21.204;2022-08-21T04:22:21;8.30;;;3.63;;
22282;SDS011;11310;51.528;21.204;2022-08-21T04:24:50;7.00;;;3.60;;
22282;SDS011;11310;51.528;21.204;2022-08-21T04:27:19;7.60;;;3.08;;
22282;SDS011;11310;51.528;21.204;2022-08-21T04:29:47;6.05;;;3.22;;
22282;SDS011;11310;51.528;21.204;2022-08-21T04:32:21;9.88;;;4.43;;
22282;SDS011;11310;51.528;21.204;2022-08-21T04:34:58;9.02;;;3.10;;
22282;SDS011;11310;51.528;21.204;2022-08-21T04:37:29;7.65;;;3.60;;
22282;SDS011;11310;51.528;21.204;2022-08-21T04:39:58;8.18;;;3.40;;
22282;SDS011;11310;51.528;21.204;2022-08-21T04:42:28;5.60;;;3.03;;
22282;SDS011;11310;51.528;21.204;2022-08-21T04:44:57;7.53;;;3.60;;
22282;SDS011;11310;51.528;21.204;2022-08-21T04:47:27;7.20;;;3.20;;
22282;SDS011;11310;51.528;21.204;2022-08-21T04:50:16;6.45;;;3.25;;
22282;SDS011;11310;51.528;21.204;2022-08-21T04:53:04;7.00;;;3.30;;
22282;SDS011;11310;51.528;21.204;2022-08-21T04:55:36;9.43;;;3.60;;
22282;SDS011;11310;51.528;21.204;2022-08-21T04:58:05;7.25;;;3.10;;
22282;SDS011;11310;51.528;21.204;2022-08-21T05:00:36;7.55;;;3.47;;
22282;SDS011;11310;51.528;21.204;2022-08-21T05:03:06;8.00;;;4.72;;
22282;SDS011;11310;51.528;21.204;2022-08-21T05:05:38;7.88;;;3.50;;
22282;SDS011;11310;51.528;21.204;2022-08-21T05:08:09;8.43;;;3.47;;
22282;SDS011;11310;51.528;21.204;2022-08-21T05:10:43;6.30;;;3.10;;
22282;SDS011;11310;51.528;21.204;2022-08-21T05:13:14;7.07;;;3.60;;
22282;SDS011;11310;51.528;21.204;2022-08-21T05:15:43;6.85;;;4.25;;
22282;SDS011;11310;51.528;21.204;2022-08-21T05:18:12;7.70;;;3.80;;
22282;SDS011;11310;51.528;21.204;2022-08-21T05:20:41;5.82;;;3.10;;
22282;SDS011;11310;51.528;21.204;2022-08-21T05:23:13;7.32;;;3.45;;
22282;SDS011;11310;51.528;21.204;2022-08-21T05:25:43;8.88;;;3.20;;
22282;SDS011;11310;51.528;21.204;2022-08-21T05:28:15;6.85;;;3.38;;
22282;SDS011;11310;51.528;21.204;2022-08-21T05:30:45;7.97;;;3.50;;
22282;SDS011;11310;51.528;21.204;2022-08-21T05:33:14;6.63;;;3.67;;
22282;SDS011;11310;51.528;21.204;2022-08-21T05:35:44;7.75;;;3.45;;
22282;SDS011;11310;51.528;21.204;2022-08-21T05:38:16;8.45;;;3.30;;
22282;SDS011;11310;51.528;21.204;2022-08-21T05:40:45;6.13;;;3.55;;
22282;SDS011;11310;51.528;21.204;2022-08-21T05:43:15;9.40;;;3.63;;
22282;SDS011;11310;51.528;21.204;2022-08-21T05:45:45;8.98;;;3.92;;
22282;SDS011;11310;51.528;21.204;2022-08-21T05:48:15;7.05;;;3.80;;
22282;SDS011;11310;51.528;21.204;2022-08-21T05:50:45;6.47;;;3.55;;
22282;SDS011;11310;51.528;21.204;2022-08-21T05:53:17;8.07;;;4.13;;
22282;SDS011;11310;51.528;21.204;2022-08-21T05:55:47;7.55;;;3.65;;
22282;SDS011;11310;51.528;21.204;2022-08-21T05:58:17;7.53;;;3.45;;
22282;SDS011;11310;51.528;21.204;2022-08-21T06:00:48;9.95;;;4.32;;
22282;SDS011;11310;51.528;21.204;2022-08-21T06:03:19;8.05;;;3.63;;
22282;SDS011;11310;51.528;21.204;2022-08-21T06:05:50;7.55;;;3.75;;
22282;SDS011;11310;51.528;21.204;2022-08-21T06:08:21;6.90;;;3.63;;
22282;SDS011;11310;51.528;21.204;2022-08-21T06:10:51;7.87;;;3.50;;
22282;SDS011;11310;51.528;21.204;2022-08-21T06:13:21;6.85;;;3.50;;
22282;SDS011;11310;51.528;21.204;2022-08-21T06:15:59;6.63;;;3.67;;
22282;SDS011;11310;51.528;21.204;2022-08-21T06:18:30;6.32;;;3.63;;
22282;SDS011;11310;51.528;21.204;2022-08-21T06:20:59;6.88;;;3.83;;
22282;SDS011;11310;51.528;21.204;2022-08-21T06:23:30;14.40;;;3.85;;
22282;SDS011;11310;51.528;21.204;2022-08-21T06:26:00;6.05;;;3.47;;
22282;SDS011;11310;51.528;21.204;2022-08-21T06:28:29;6.15;;;3.30;;
22282;SDS011;11310;51.528;21.204;2022-08-21T06:30:59;7.60;;;3.58;;
22282;SDS011;11310;51.528;21.204;2022-08-21T06:33:28;7.70;;;3.80;;
22282;SDS011;11310;51.528;21.204;2022-08-21T06:35:59;6.28;;;3.22;;
22282;SDS011;11310;51.528;21.204;2022-08-21T06:38:29;12.70;;;3.85;;
22282;SDS011;11310;51.528;21.204;2022-08-21T06:40:59;9.63;;;4.47;;
22282;SDS011;11310;51.528;21.204;2022-08-21T06:43:30;18.80;;;4.03;;
22282;SDS011;11310;51.528;21.204;2022-08-21T06:46:06;6.60;;;3.40;;
22282;SDS011;11310;51.528;21.204;2022-08-21T06:48:35;9.35;;;3.80;;
22282;SDS011;11310;51.528;21.204;2022-08-21T06:51:04;8.18;;;3.70;;
22282;SDS011;11310;51.528;21.204;2022-08-21T06:53:34;7.78;;;3.65;;
22282;SDS011;11310;51.528;21.204;2022-08-21T06:56:04;6.70;;;3.58;;
22282;SDS011;11310;51.528;21.204;2022-08-21T06:58:33;7.15;;;3.60;;
22282;SDS011;11310;51.528;21.204;2022-08-21T07:01:02;7.13;;;3.85;;
22282;SDS011;11310;51.528;21.204;2022-08-21T07:03:33;6.07;;;3.95;;
22282;SDS011;11310;51.528;21.204;2022-08-21T07:06:03;6.47;;;3.53;;
22282;SDS011;11310;51.528;21.204;2022-08-21T07:08:34;7.90;;;3.70;;
22282;SDS011;11310;51.528;21.204;2022-08-21T07:13:38;10.02;;;3.90;;
22282;SDS011;11310;51.528;21.204;2022-08-21T07:16:07;9.85;;;3.92;;
22282;SDS011;11310;51.528;21.204;2022-08-21T07:18:36;6.53;;;3.75;;
22282;SDS011;11310;51.528;21.204;2022-08-21T07:21:06;5.80;;;3.50;;
22282;SDS011;11310;51.528;21.204;2022-08-21T07:23:38;8.73;;;3.80;;
22282;SDS011;11310;51.528;21.204;2022-08-21T07:26:09;6.53;;;3.63;;
22282;SDS011;11310;51.528;21.204;2022-08-21T07:28:38;10.77;;;3.67;;
22282;SDS011;11310;51.528;21.204;2022-08-21T07:31:08;4.95;;;3.20;;
22282;SDS011;11310;51.528;21.204;2022-08-21T07:33:41;6.82;;;3.22;;
22282;SDS011;11310;51.528;21.204;2022-08-21T07:36:11;7.30;;;3.33;;
22282;SDS011;11310;51.528;21.204;2022-08-21T07:38:41;8.15;;;3.50;;
22282;SDS011;11310;51.528;21.204;2022-08-21T07:41:12;6.15;;;3.10;;
22282;SDS011;11310;51.528;21.204;2022-08-21T07:43:44;5.10;;;2.92;;
22282;SDS011;11310;51.528;21.204;2022-08-21T07:46:13;7.50;;;2.95;;
22282;SDS011;11310;51.528;21.204;2022-08-21T07:48:43;4.10;;;2.35;;
22282;SDS011;11310;51.528;21.204;2022-08-21T07:51:15;5.82;;;2.78;;
22282;SDS011;11310;51.528;21.204;2022-08-21T07:53:52;6.43;;;3.15;;
22282;SDS011;11310;51.528;21.204;2022-08-21T07:56:23;5.88;;;3.05;;
22282;SDS011;11310;51.528;21.204;2022-08-21T07:58:51;4.97;;;2.88;;
22282;SDS011;11310;51.528;21.204;2022-08-21T08:01:20;4.93;;;2.80;;
22282;SDS011;11310;51.528;21.204;2022-08-21T08:03:49;8.90;;;3.15;;
22282;SDS011;11310;51.528;21.204;2022-08-21T08:06:19;7.90;;;3.20;;
22282;SDS011;11310;51.528;21.204;2022-08-21T08:08:47;3.95;;;2.42;;
22282;SDS011;11310;51.528;21.204;2022-08-21T08:11:18;5.53;;;2.92;;
22282;SDS011;11310;51.528;21.204;2022-08-21T08:13:48;7.03;;;3.10;;
22282;SDS011;11310;51.528;21.204;2022-08-21T08:16:19;11.48;;;3.30;;
22282;SDS011;11310;51.528;21.204;2022-08-21T08:18:47;4.72;;;2.65;;
22282;SDS011;11310;51.528;21.204;2022-08-21T08:21:20;4.72;;;2.58;;
22282;SDS011;11310;51.528;21.204;2022-08-21T08:23:50;7.10;;;3.00;;
22282;SDS011;11310;51.528;21.204;2022-08-21T08:26:47;6.80;;;2.83;;
22282;SDS011;11310;51.528;21.204;2022-08-21T08:29:20;5.63;;;2.75;;
22282;SDS011;11310;51.528;21.204;2022-08-21T08:31:50;4.40;;;2.42;;
22282;SDS011;11310;51.528;21.204;2022-08-21T08:34:19;6.07;;;2.80;;
22282;SDS011;11310;51.528;21.204;2022-08-21T08:36:51;6.00;;;2.80;;
22282;SDS011;11310;51.528;21.204;2022-08-21T08:39:22;4.07;;;2.50;;
22282;SDS011;11310;51.528;21.204;2022-08-21T08:41:58;8.93;;;2.70;;
22282;SDS011;11310;51.528;21.204;2022-08-21T08:44:55;4.55;;;2.63;;
22282;SDS011;11310;51.528;21.204;2022-08-21T08:47:27;7.63;;;2.70;;
22282;SDS011;11310;51.528;21.204;2022-08-21T08:50:00;4.53;;;2.38;;
22282;SDS011;11310;51.528;21.204;2022-08-21T08:52:34;4.90;;;2.35;;
22282;SDS011;11310;51.528;21.204;2022-08-21T08:55:09;7.38;;;2.50;;
22282;SDS011;11310;51.528;21.204;2022-08-21T08:57:44;6.50;;;2.60;;
22282;SDS011;11310;51.528;21.204;2022-08-21T09:00:17;9.95;;;3.00;;
22282;SDS011;11310;51.528;21.204;2022-08-21T09:02:47;4.63;;;2.42;;
22282;SDS011;11310;51.528;21.204;2022-08-21T09:05:22;5.68;;;2.58;;
22282;SDS011;11310;51.528;21.204;2022-08-21T09:07:57;7.15;;;2.72;;
22282;SDS011;11310;51.528;21.204;2022-08-21T09:10:46;6.18;;;2.67;;
22282;SDS011;11310;51.528;21.204;2022-08-21T09:13:27;6.53;;;2.60;;
22282;SDS011;11310;51.528;21.204;2022-08-21T09:16:10;5.38;;;2.33;;
22282;SDS011;11310;51.528;21.204;2022-08-21T09:18:49;4.47;;;2.40;;
22282;SDS011;11310;51.528;21.204;2022-08-21T09:21:28;3.92;;;2.30;;
22282;SDS011;11310;51.528;21.204;2022-08-21T09:24:12;4.60;;;2.60;;
22282;SDS011;11310;51.528;21.204;2022-08-21T09:27:02;5.30;;;2.42;;
22282;SDS011;11310;51.528;21.204;2022-08-21T09:29:39;5.10;;;2.92;;
22282;SDS011;11310;51.528;21.204;2022-08-21T09:32:15;4.03;;;2.28;;
22282;SDS011;11310;51.528;21.204;2022-08-21T09:34:56;6.28;;;2.40;;
22282;SDS011;11310;51.528;21.204;2022-08-21T09:37:28;5.13;;;2.35;;
22282;SDS011;11310;51.528;21.204;2022-08-21T09:39:58;3.70;;;2.38;;
22282;SDS011;11310;51.528;21.204;2022-08-21T09:42:28;4.47;;;2.33;;
22282;SDS011;11310;51.528;21.204;2022-08-21T09:45:10;6.18;;;2.15;;
22282;SDS011;11310;51.528;21.204;2022-08-21T09:47:42;5.70;;;2.30;;
22282;SDS011;11310;51.528;21.204;2022-08-21T09:50:13;3.65;;;2.33;;
22282;SDS011;11310;51.528;21.204;2022-08-21T09:52:52;8.18;;;2.50;;
22282;SDS011;11310;51.528;21.204;2022-08-21T09:55:28;7.70;;;3.22;;
22282;SDS011;11310;51.528;21.204;2022-08-21T09:58:19;3.60;;;2.03;;
22282;SDS011;11310;51.528;21.204;2022-08-21T10:00:58;4.72;;;2.13;;
22282;SDS011;11310;51.528;21.204;2022-08-21T10:03:28;9.18;;;2.47;;
22282;SDS011;11310;51.528;21.204;2022-08-21T10:05:58;3.45;;;2.30;;
22282;SDS011;11310;51.528;21.204;2022-08-21T10:08:33;4.95;;;2.20;;
22282;SDS011;11310;51.528;21.204;2022-08-21T10:11:04;6.10;;;2.50;;
22282;SDS011;11310;51.528;21.204;2022-08-21T10:13:47;3.67;;;2.08;;
22282;SDS011;11310;51.528;21.204;2022-08-21T10:16:28;3.95;;;2.42;;
22282;SDS011;11310;51.528;21.204;2022-08-21T10:19:09;10.52;;;3.58;;
22282;SDS011;11310;51.528;21.204;2022-08-21T10:21:46;3.90;;;2.35;;
22282;SDS011;11310;51.528;21.204;2022-08-21T10:24:29;5.90;;;2.30;;
22282;SDS011;11310;51.528;21.204;2022-08-21T10:27:03;7.85;;;2.75;;
22282;SDS011;11310;51.528;21.204;2022-08-21T10:29:44;3.30;;;2.40;;
22282;SDS011;11310;51.528;21.204;2022-08-21T10:32:25;6.45;;;2.80;;
22282;SDS011;11310;51.528;21.204;2022-08-21T10:35:06;5.82;;;2.42;;
22282;SDS011;11310;51.528;21.204;2022-08-21T10:37:45;4.78;;;2.83;;
22282;SDS011;11310;51.528;21.204;2022-08-21T10:40:27;5.35;;;2.40;;
22282;SDS011;11310;51.528;21.204;2022-08-21T10:43:05;6.07;;;2.40;;
22282;SDS011;11310;51.528;21.204;2022-08-21T10:45:50;3.70;;;2.22;;
22282;SDS011;11310;51.528;21.204;2022-08-21T10:48:29;3.15;;;2.13;;
22282;SDS011;11310;51.528;21.204;2022-08-21T10:51:05;3.25;;;1.88;;
22282;SDS011;11310;51.528;21.204;2022-08-21T10:53:47;5.75;;;1.98;;
22282;SDS011;11310;51.528;21.204;2022-08-21T10:56:29;3.97;;;2.15;;
22282;SDS011;11310;51.528;21.204;2022-08-21T10:59:04;3.58;;;2.15;;
22282;SDS011;11310;51.528;21.204;2022-08-21T11:01:47;6.40;;;2.25;;
22282;SDS011;11310;51.528;21.204;2022-08-21T11:04:24;8.27;;;2.42;;
22282;SDS011;11310;51.528;21.204;2022-08-21T11:07:18;5.25;;;2.20;;
22282;SDS011;11310;51.528;21.204;2022-08-21T11:09:56;4.35;;;2.35;;
22282;SDS011;11310;51.528;21.204;2022-08-21T11:12:33;3.25;;;2.10;;
22282;SDS011;11310;51.528;21.204;2022-08-21T11:15:15;4.88;;;2.35;;
22282;SDS011;11310;51.528;21.204;2022-08-21T11:18:14;4.60;;;2.40;;
22282;SDS011;11310;51.528;21.204;2022-08-21T11:20:54;5.10;;;2.25;;
22282;SDS011;11310;51.528;21.204;2022-08-21T11:23:31;3.15;;;2.17;;
22282;SDS011;11310;51.528;21.204;2022-08-21T11:26:12;3.47;;;2.10;;
22282;SDS011;11310;51.528;21.204;2022-08-21T11:28:47;3.75;;;2.30;;
22282;SDS011;11310;51.528;21.204;2022-08-21T11:31:31;7.22;;;2.17;;
22282;SDS011;11310;51.528;21.204;2022-08-21T11:36:54;3.50;;;2.10;;
22282;SDS011;11310;51.528;21.204;2022-08-21T11:39:32;4.38;;;2.20;;
22282;SDS011;11310;51.528;21.204;2022-08-21T11:42:18;5.32;;;2.22;;
22282;SDS011;11310;51.528;21.204;2022-08-21T11:44:55;5.88;;;2.70;;
22282;SDS011;11310;51.528;21.204;2022-08-21T11:47:33;4.40;;;2.60;;
22282;SDS011;11310;51.528;21.204;2022-08-21T11:50:20;5.32;;;2.60;;
22282;SDS011;11310;51.528;21.204;2022-08-21T11:53:06;4.65;;;2.53;;
22282;SDS011;11310;51.528;21.204;2022-08-21T11:55:40;4.20;;;2.70;;
22282;SDS011;11310;51.528;21.204;2022-08-21T11:58:15;13.15;;;2.90;;
22282;SDS011;11310;51.528;21.204;2022-08-21T12:00:52;3.72;;;2.15;;
22282;SDS011;11310;51.528;21.204;2022-08-21T12:03:24;5.07;;;2.80;;
22282;SDS011;11310;51.528;21.204;2022-08-21T12:05:57;8.35;;;3.13;;
22282;SDS011;11310;51.528;21.204;2022-08-21T12:08:32;4.93;;;2.50;;
22282;SDS011;11310;51.528;21.204;2022-08-21T12:11:07;7.90;;;2.60;;
22282;SDS011;11310;51.528;21.204;2022-08-21T12:16:09;2.60;;;1.98;;
22282;SDS011;11310;51.528;21.204;2022-08-21T12:18:40;4.53;;;2.40;;
22282;SDS011;11310;51.528;21.204;2022-08-21T12:24:15;4.65;;;2.30;;
22282;SDS011;11310;51.528;21.204;2022-08-21T12:26:48;3.35;;;2.15;;
22282;SDS011;11310;51.528;21.204;2022-08-21T12:29:22;4.15;;;2.22;;
22282;SDS011;11310;51.528;21.204;2022-08-21T12:31:55;4.10;;;2.13;;
22282;SDS011;11310;51.528;21.204;2022-08-21T12:34:34;4.72;;;2.30;;
22282;SDS011;11310;51.528;21.204;2022-08-21T12:37:07;4.75;;;2.50;;
22282;SDS011;11310;51.528;21.204;2022-08-21T12:39:48;3.65;;;2.38;;
22282;SDS011;11310;51.528;21.204;2022-08-21T12:42:22;5.40;;;2.85;;
22282;SDS011;11310;51.528;21.204;2022-08-21T12:44:57;5.32;;;2.35;;
22282;SDS011;11310;51.528;21.204;2022-08-21T12:47:32;3.22;;;2.30;;
22282;SDS011;11310;51.528;21.204;2022-08-21T12:50:09;4.95;;;2.78;;
22282;SDS011;11310;51.528;21.204;2022-08-21T12:52:42;4.32;;;2.53;;
22282;SDS011;11310;51.528;21.204;2022-08-21T12:55:25;8.13;;;2.60;;
22282;SDS011;11310;51.528;21.204;2022-08-21T12:57:55;3.45;;;2.15;;
22282;SDS011;11310;51.528;21.204;2022-08-21T13:00:27;3.40;;;2.40;;
22282;SDS011;11310;51.528;21.204;2022-08-21T13:02:59;3.60;;;2.30;;
22282;SDS011;11310;51.528;21.204;2022-08-21T13:05:29;2.85;;;1.90;;
22282;SDS011;11310;51.528;21.204;2022-08-21T13:08:03;4.47;;;2.20;;
22282;SDS011;11310;51.528;21.204;2022-08-21T13:10:37;4.00;;;2.30;;
22282;SDS011;11310;51.528;21.204;2022-08-21T13:13:09;2.92;;;2.10;;
22282;SDS011;11310;51.528;21.204;2022-08-21T13:15:56;4.28;;;2.35;;
22282;SDS011;11310;51.528;21.204;2022-08-21T13:18:27;5.57;;;2.30;;
22282;SDS011;11310;51.528;21.204;2022-08-21T13:21:05;8.27;;;2.50;;
22282;SDS011;11310;51.528;21.204;2022-08-21T13:23:36;3.80;;;2.30;;
22282;SDS011;11310;51.528;21.204;2022-08-21T13:26:13;4.75;;;2.70;;
22282;SDS011;11310;51.528;21.204;2022-08-21T13:28:45;3.53;;;2.00;;
22282;SDS011;11310;51.528;21.204;2022-08-21T13:31:16;3.83;;;2.05;;
22282;SDS011;11310;51.528;21.204;2022-08-21T13:33:48;5.47;;;2.40;;
22282;SDS011;11310;51.528;21.204;2022-08-21T13:36:19;2.42;;;1.98;;
22282;SDS011;11310;51.528;21.204;2022-08-21T13:38:53;2.55;;;1.80;;
22282;SDS011;11310;51.528;21.204;2022-08-21T13:41:24;6.72;;;2.10;;
22282;SDS011;11310;51.528;21.204;2022-08-21T13:43:58;4.00;;;2.10;;
22282;SDS011;11310;51.528;21.204;2022-08-21T13:46:29;4.18;;;2.30;;
22282;SDS011;11310;51.528;21.204;2022-08-21T13:49:01;5.40;;;2.38;;
22282;SDS011;11310;51.528;21.204;2022-08-21T13:51:33;5.40;;;1.90;;
22282;SDS011;11310;51.528;21.204;2022-08-21T13:54:13;3.78;;;1.90;;
22282;SDS011;11310;51.528;21.204;2022-08-21T13:56:46;3.47;;;2.30;;
22282;SDS011;11310;51.528;21.204;2022-08-21T13:59:23;3.08;;;2.00;;
22282;SDS011;11310;51.528;21.204;2022-08-21T14:01:54;3.45;;;1.92;;
22282;SDS011;11310;51.528;21.204;2022-08-21T14:04:31;3.22;;;2.00;;
22282;SDS011;11310;51.528;21.204;2022-08-21T14:07:13;5.05;;;2.00;;
22282;SDS011;11310;51.528;21.204;2022-08-21T14:09:44;2.88;;;1.85;;
22282;SDS011;11310;51.528;21.204;2022-08-21T14:12:16;5.25;;;1.90;;
22282;SDS011;11310;51.528;21.204;2022-08-21T14:14:51;2.55;;;1.80;;
22282;SDS011;11310;51.528;21.204;2022-08-21T14:17:27;3.97;;;1.83;;
22282;SDS011;11310;51.528;21.204;2022-08-21T14:20:00;2.88;;;2.00;;
22282;SDS011;11310;51.528;21.204;2022-08-21T14:22:32;5.05;;;1.98;;
22282;SDS011;11310;51.528;21.204;2022-08-21T14:25:11;3.75;;;1.95;;
22282;SDS011;11310;51.528;21.204;2022-08-21T14:27:44;2.60;;;2.00;;
22282;SDS011;11310;51.528;21.204;2022-08-21T14:30:20;3.70;;;2.33;;
22282;SDS011;11310;51.528;21.204;2022-08-21T14:32:55;2.75;;;1.90;;
22282;SDS011;11310;51.528;21.204;2022-08-21T14:35:24;3.28;;;2.10;;
22282;SDS011;11310;51.528;21.204;2022-08-21T14:37:53;4.35;;;2.45;;
22282;SDS011;11310;51.528;21.204;2022-08-21T14:40:23;2.90;;;2.05;;
22282;SDS011;11310;51.528;21.204;2022-08-21T14:42:54;5.78;;;2.25;;
22282;SDS011;11310;51.528;21.204;2022-08-21T14:45:25;2.92;;;1.80;;
22282;SDS011;11310;51.528;21.204;2022-08-21T14:47:55;3.78;;;2.35;;
22282;SDS011;11310;51.528;21.204;2022-08-21T14:50:26;5.20;;;2.33;;
22282;SDS011;11310;51.528;21.204;2022-08-21T14:52:54;5.57;;;2.30;;
22282;SDS011;11310;51.528;21.204;2022-08-21T14:55:24;3.33;;;2.22;;
22282;SDS011;11310;51.528;21.204;2022-08-21T14:57:55;3.47;;;2.20;;
22282;SDS011;11310;51.528;21.204;2022-08-21T15:00:24;4.30;;;2.37;;
22282;SDS011;11310;51.528;21.204;2022-08-21T15:03:02;5.35;;;2.50;;
22282;SDS011;11310;51.528;21.204;2022-08-21T15:05:35;15.70;;;5.82;;
22282;SDS011;11310;51.528;21.204;2022-08-21T15:08:03;16.83;;;5.28;;
22282;SDS011;11310;51.528;21.204;2022-08-21T15:10:33;15.70;;;6.20;;
22282;SDS011;11310;51.528;21.204;2022-08-21T15:13:23;14.90;;;5.35;;
22282;SDS011;11310;51.528;21.204;2022-08-21T15:15:52;14.00;;;5.53;;
22282;SDS011;11310;51.528;21.204;2022-08-21T15:18:23;17.90;;;6.20;;